Wednesday, February 10, 2016
06:52 UTC
  |  Log In   |  Register Free
Airport Search:

Lewis University Airport
(KLOT)

Lewis University Airport Diagram
No Airport Diagram Available

FAA data valid effective Dec 10 2015 - Feb 4 2016 (unless otherwise noted).

 
 
 
 
 
 
 
 
 
 
 
 
 
 
Current Aviation Weather for KLOT

Weather Summary


The most recent METAR observation for LOT was updated at: 12:55 UTC
METAR for KLOT is not available. Closest METAR is for KJOT
KLOT  (most recent observation was updatred at 10:06 UTC)
100635Z AUTO 32010G15KT 10SM OVC075 M10/M16 A2996 RMK AO2 T11011157

KJOT  (6.4 nm NE)   (most recent observation was updated at 10:06 UTC)
100635Z AUTO 30006KT 10SM BKN075 M09/M14 A2997 RMK AO2 T10951145

KC09  (18.2 nm NE)   (most recent observation was updated at 10:06 UTC)
100635Z AUTO 30009KT 10SM CLR M11/M15 A2994 RMK AO2 T11121150

TAF for KLOT is not available.
KMDW  (18.8 nm SW)   (most recent observation was updatred at 10:05 UTC)
100530Z 1006/1106 31012G18KT P6SM VCSH FEW030 BKN040 BKN060 FM101300 31011G15KT P6SM SCT020 BKN250 FM110100 32008KT P6SM SCT150


KDPA  (19.2 nm SE)   (most recent observation was updatred at 10:05 UTC)
100530Z 1006/1106 31012G18KT P6SM VCSH FEW030 BKN040 BKN060 FM101300 31011G15KT P6SM SCT020 BKN250 FM110100 32008KT P6SM SCT150


KORD  (23.9 nm SW)   (most recent observation was updatred at 10:05 UTC)
100530Z 1006/1112 32012G18KT P6SM VCSH FEW030 BKN040 BKN060 FM101300 31011G15KT P6SM SCT020 BKN250 FM110100 32008KT P6SM SCT150
GlobalAir.com is loading additional information.
 Current Weather at LOT
14.0 F° (-10.0 C°)

Northwest winds at 12.7 mph
Pressure:
29.96 in
Humidity:
70%
Wind:
Northwest at 12.7 mph
Dew Point:
5.9 F° (-14.5 C°)
Visibility:
10.00 mi
LOT NOAA Radar




Find All Airport Services Find A Hotel Find A Rental Car Find A Golf Course Find A Restaurant $100 Hamburger



Airport Weather Forecast for KLOT

Translated METAR for KLOT (0635 UTC)
METAR:
KLOT 100635Z AUTO 32010G15KT 10SM OVC075 M10/M16 A2996 RMK AO2 T11011157
Conditions at:
KLOT (Lewis University, IL) observed 0635 UTC 10 February 2016
Temperature:
-10°C (14°F)
Dewpoint:
-16°C (3.2°F) [RH = 61.5]
Pressure:
29.96 inches Hg (1014.6 mb)
Winds:
from the NW (320 degrees) at 11.5 mph (10 knots: 5.1 m/s)
gusting to 17.3 mph (15 knots: 7.7 m/s)
Visibility:
10 mile(s)
Ceiling:
7,500 feet AGL
Clouds:
Overcast Skies at 7,500 feet AGL
Remarks:
site is un-manned
site is automated and HAS a precipitation sensor

Translated TAF for KMDW (Chicago Midway Intl, IL) (0530 UTC)
TAF text:
KMDW 100530Z 1006/1106 31012G18KT P6SM VCSH FEW030 BKN040 BKN060
Forecast period:
Wednesday Feb 10 2016 06:00 UTC - Thursday Feb 11 2016 06:00 UTC
Forecast type:
FROM: standard forecast or significant change
Winds:
from the NW (310 degrees) at 13.8 mph (12 knots: 6.2 m/s)
gusting to 20.7 mph (18 knots: 9.3 m/s)
Visibility:
6 or more mile(s) (9.7+ km)
Ceiling:
4,000 feet AGL
Clouds:
Few Clouds at 3,000 feet AGL
Broken Cloud Cover at 4,000 feet AGL
Broken Cloud Cover at 6,000 feet AGL
Weather:
Moderate In Vicinity Shower(s)
TAF text:
FM101300 31011G15KT P6SM SCT020 BKN250
Forecast period:
Wednesday Feb 10 2016 13:00 UTC - Thursday Feb 11 2016 01:00 UTC
Forecast type:
FROM: standard forecast or significant change
Winds:
from the NW (310 degrees) at 12.7 mph (11 knots: 5.7 m/s)
gusting to 17.3 mph (15 knots: 7.7 m/s)
Visibility:
6 or more mile(s) (9.7+ km)
Ceiling:
25,000 feet AGL
Clouds:
Scattered Clouds at 2,000 feet AGL
Broken Cloud Cover at 25,000 feet AGL
Weather:
no significant weather observed at this time
TAF text:
FM110100 32008KT P6SM SCT150
Forecast period:
Thursday Feb 11 2016 01:00 UTC - Thursday Feb 11 2016 06:00 UTC
Forecast type:
FROM: standard forecast or significant change
Winds:
from the NW (320 degrees) at 9.2 mph (8 knots: 4.1 m/s)
Visibility:
6 or more mile(s) (9.7+ km)
Ceiling:
at least 12,000 feet AGL
Clouds:
Scattered Clouds at 15,000 feet AGL
Weather:
no significant weather observed at this time
FBO's on the Field
FBO Company Facility Photos Services Transportation Aviation Fuel Prices: Prices include tax
Catering Weather Repair Courtesy Rental Type 100LL JetA JetA+ MOGAS 8087
 
Lewis University Airport

This FBO has not yet been rated
FS:Phillips 66
Last Updated: Jan-15
Login to update fuel prices
SS:
Contact Lewis University AirportMore FBO Information
 
Add another FBO Facility Photos Catering Weather Repair Courtesy Rental Type 100LL JetA JetA+ MOGAS 8087
Services Transportation Aviation Fuel Prices: Prices include tax


model-print
model-print
model-print
model-print